Aérodrome :
LOGIN :

S'inscrire | Disclaimer

   EN    FR    IT 

 










Légende :    VFR   VFR Marginal   IFR   IFR Intensif   IFR Très Intensif
Visi : 
Plafond : 
>= 8 km
>= 3000ft
5 à 8 km
1000 à 3000 ft
1500m à 5 km
500 à 1000 ft
800 à 1500m
200 à 500 ft
< 800m
< 200 ft
Symboles :   Orages  Brouillard  Fortes neiges  Fortes précipitations  Vent > 20 kt
SIGMETs :   Divers  Orages  Givrage  Turbulence  Onde Orograph.  Cendres Volcan.






- Altitude de l'aérodrome : 325 ft
- Code IATA : POX


LFPT - Pontoise

DERNIER METAR :
  • 070330Z AUTO 28003KT 5000 BR NSC M02/M02 Q1021

METARs EXPIRÉS :
  • 070300Z AUTO 30003KT 5000 BR FEW044 M01/M02 Q1021
  • 070230Z AUTO 26002KT 5000 BR SCT043 M01/M01 Q1021
  • 070200Z AUTO 30004KT 4700 BR FEW032 OVC045 M01/M01 Q1021
  • 070130Z AUTO 28004KT 230V300 5000 BR BKN001 OVC043 M01/M01 Q1021
  • 070100Z AUTO VRB03KT 2900 BR VV/// M01/M01 Q1021

TAF N/A
ATIS : +33 1 30 30 52 08



MET'MAP, la Météo Aéronautique d'un coup d'oeil ! - Copyright ORBIFLY Décembre 2007 - Disclaimer

ORBIFLY MET'MAP TEAM :

Programmation & Développement : Alexandra Zaïnal
Sur une idée originale de : Baudouin d'Aumeries
Soutien technique & logistique : Manuel Goepfert
Assistance : Marc-Olivier Méhu




SOURCES & CREDITS :

   NOAA